Time;durP1;ratioP1;P1;durP2;ratioP2;P2;SDS_P1;SDS_P2;PMS_P1;PMS_P2;Temp;Humidity;BMP_temperature;BMP_pressure;BME280_temperature;BME280_humidity;BME280_pressure;Samples;Min_cycle;Max_cycle;Signal;HPM_P1;HPM_P2
2021/11/01 00:02:09;;;;;;;22.00;3.58;;;;;;;;;;5117592;27;20039;-83
2021/11/01 00:04:35;;;;;;;17.58;3.08;;;;;;;;;;5117118;27;20047;-84
2021/11/01 00:07:01;;;;;;;15.02;2.97;;;;;;;;;;5116795;27;20147;-84
2021/11/01 00:09:29;;;;;;;19.70;3.47;;;;;;;;;;5117237;27;20047;-84
2021/11/01 00:11:55;;;;;;;19.30;3.78;;;;;;;;;;5116564;27;20035;-83
2021/11/01 00:14:22;;;;;;;17.85;3.33;;;;;;;;;;5117086;27;20111;-83
2021/11/01 00:16:49;;;;;;;20.40;3.88;;;;;;;;;;5099919;27;20425;-83
2021/11/01 00:19:15;;;;;;;18.85;3.25;;;;;;;;;;5099956;27;20069;-83
2021/11/01 00:21:41;;;;;;;19.10;3.63;;;;;;;;;;5116400;27;20117;-83
2021/11/01 00:24:07;;;;;;;16.60;3.20;;;;;;;;;;5099786;28;20053;-83
2021/11/01 00:26:34;;;;;;;19.52;4.25;;;;;;;;;;5099464;27;20406;-83
2021/11/01 00:29:03;;;;;;;17.45;3.08;;;;;;;;;;5099607;27;20043;-84
2021/11/01 00:31:29;;;;;;;14.77;3.22;;;;;;;;;;5116775;27;20058;-83
2021/11/01 00:33:56;;;;;;;22.30;4.28;;;;;;;;;;5099694;27;20047;-83
2021/11/01 00:36:22;;;;;;;13.77;3.00;;;;;;;;;;5099534;28;20084;-83
2021/11/01 00:38:48;;;;;;;15.13;3.40;;;;;;;;;;5099586;28;20519;-83
2021/11/01 00:41:16;;;;;;;18.50;3.75;;;;;;;;;;5100321;28;20461;-83
2021/11/01 00:43:42;;;;;;;20.10;3.47;;;;;;;;;;5116215;28;20120;-83
2021/11/01 00:46:08;;;;;;;18.85;3.80;;;;;;;;;;5116255;28;20047;-82
2021/11/01 00:48:34;;;;;;;16.02;3.05;;;;;;;;;;5116722;28;20394;-83
2021/11/01 00:51:01;;;;;;;16.60;3.42;;;;;;;;;;5099478;28;20138;-84
2021/11/01 00:53:32;;;;;;;13.40;3.22;;;;;;;;;;5099534;28;20058;-83
2021/11/01 00:55:59;;;;;;;13.07;3.30;;;;;;;;;;5116448;28;20134;-83
2021/11/01 00:58:27;;;;;;;13.95;3.17;;;;;;;;;;5099382;28;20086;-83
2021/11/01 01:00:53;;;;;;;20.20;3.70;;;;;;;;;;5099246;28;20089;-85
2021/11/01 01:03:19;;;;;;;19.55;3.50;;;;;;;;;;5116405;28;20135;-83
2021/11/01 01:05:46;;;;;;;16.02;4.25;;;;;;;;;;5098775;28;20047;-83
2021/11/01 01:08:13;;;;;;;18.38;3.90;;;;;;;;;;5099677;28;20108;-84
2021/11/01 01:10:40;;;;;;;16.75;3.58;;;;;;;;;;5117684;27;20047;-84
2021/11/01 01:13:07;;;;;;;15.68;3.53;;;;;;;;;;5120249;27;20043;-83
2021/11/01 01:15:43;;;;;;;16.73;3.60;;;;;;;;;;5121076;27;20098;-83
2021/11/01 01:18:15;;;;;;;13.70;3.58;;;;;;;;;;5103540;27;20043;-82
2021/11/01 01:20:43;;;;;;;16.20;3.35;;;;;;;;;;5103840;27;20134;-83
2021/11/01 01:23:09;;;;;;;21.73;3.40;;;;;;;;;;5103236;27;20047;-83
2021/11/01 01:25:45;;;;;;;15.57;3.40;;;;;;;;;;5102886;27;20039;-83
2021/11/01 01:28:12;;;;;;;17.73;3.50;;;;;;;;;;5103626;27;20054;-83
2021/11/01 01:30:39;;;;;;;15.35;3.35;;;;;;;;;;5103615;27;20100;-83
2021/11/01 01:33:10;;;;;;;16.60;3.35;;;;;;;;;;5104381;27;20054;-83
2021/11/01 01:35:36;;;;;;;19.92;3.40;;;;;;;;;;5103652;27;20085;-83
2021/11/01 01:38:03;;;;;;;14.35;2.88;;;;;;;;;;5103857;27;20053;-83
2021/11/01 01:40:29;;;;;;;17.35;4.32;;;;;;;;;;5119734;27;20043;-83
2021/11/01 01:42:56;;;;;;;14.60;3.50;;;;;;;;;;5102854;27;20070;-86
2021/11/01 01:45:22;;;;;;;17.75;2.75;;;;;;;;;;5119582;27;20046;-83
2021/11/01 01:47:48;;;;;;;15.00;2.97;;;;;;;;;;5102770;27;20047;-83
2021/11/01 01:50:15;;;;;;;17.35;3.35;;;;;;;;;;5102316;27;20500;-83
2021/11/01 01:52:42;;;;;;;14.20;2.75;;;;;;;;;;5102660;27;20042;-83
2021/11/01 01:55:09;;;;;;;14.05;3.15;;;;;;;;;;5102479;27;20099;-83
2021/11/01 01:57:35;;;;;;;17.63;3.20;;;;;;;;;;5119529;27;20047;-83
2021/11/01 02:00:03;;;;;;;13.55;3.00;;;;;;;;;;5119258;27;20043;-82
2021/11/01 02:02:29;;;;;;;14.13;2.90;;;;;;;;;;5102335;27;20500;-84
2021/11/01 02:04:55;;;;;;;12.68;3.20;;;;;;;;;;5102611;27;20054;-85
2021/11/01 02:07:32;;;;;;;20.08;3.85;;;;;;;;;;5120163;27;20051;-83
2021/11/01 02:10:05;;;;;;;14.93;3.20;;;;;;;;;;5119078;27;20087;-83
2021/11/01 02:12:31;;;;;;;12.77;3.10;;;;;;;;;;5102129;27;20495;-83
2021/11/01 02:15:00;;;;;;;11.38;2.75;;;;;;;;;;5119014;27;20093;-86
2021/11/01 02:17:28;;;;;;;15.27;3.17;;;;;;;;;;5118784;27;20045;-85
2021/11/01 02:19:57;;;;;;;12.38;3.00;;;;;;;;;;5119893;27;20102;-82
2021/11/01 02:22:31;;;;;;;13.25;3.42;;;;;;;;;;5118486;27;20482;-83
2021/11/01 02:24:57;;;;;;;12.52;2.33;;;;;;;;;;5119195;27;20043;-86
2021/11/01 02:27:24;;;;;;;15.20;2.83;;;;;;;;;;5119149;27;20138;-84
2021/11/01 02:29:51;;;;;;;13.80;2.70;;;;;;;;;;5118900;27;20051;-83
2021/11/01 02:32:19;;;;;;;13.85;2.78;;;;;;;;;;5118634;27;20043;-83
2021/11/01 02:34:45;;;;;;;13.15;2.90;;;;;;;;;;5101906;27;20055;-83
2021/11/01 02:37:12;;;;;;;13.60;3.25;;;;;;;;;;5118565;27;20047;-83
2021/11/01 02:39:53;;;;;;;16.00;2.95;;;;;;;;;;5101641;27;20487;-83
2021/11/01 02:42:20;;;;;;;12.52;2.47;;;;;;;;;;5118498;27;20118;-84
2021/11/01 02:44:54;;;;;;;11.27;3.13;;;;;;;;;;5101477;27;20047;-83
2021/11/01 02:47:20;;;;;;;13.20;2.45;;;;;;;;;;5118385;27;20043;-82
2021/11/01 02:49:46;;;;;;;15.73;3.00;;;;;;;;;;5118398;27;20066;-83
2021/11/01 02:52:13;;;;;;;10.65;2.42;;;;;;;;;;5118449;27;20394;-83
2021/11/01 02:54:39;;;;;;;15.95;2.92;;;;;;;;;;5102191;27;20445;-83
2021/11/01 02:57:05;;;;;;;19.70;3.00;;;;;;;;;;5117962;27;20123;-83
2021/11/01 02:59:31;;;;;;;12.65;2.88;;;;;;;;;;5118986;27;20042;-83
2021/11/01 03:01:59;;;;;;;14.85;2.58;;;;;;;;;;5118128;27;20046;-85
2021/11/01 03:04:26;;;;;;;14.52;2.60;;;;;;;;;;5101225;27;20047;-83
2021/11/01 03:06:52;;;;;;;10.95;2.70;;;;;;;;;;5117525;27;20055;-83
2021/11/01 03:09:19;;;;;;;8.82;2.20;;;;;;;;;;5101069;27;20417;-82
2021/11/01 03:11:45;;;;;;;13.30;3.17;;;;;;;;;;5101653;27;20043;-83
2021/11/01 03:14:14;;;;;;;12.65;2.72;;;;;;;;;;5118954;27;20134;-82
2021/11/01 03:16:40;;;;;;;12.02;2.45;;;;;;;;;;5100957;27;20043;-82
2021/11/01 03:19:10;;;;;;;10.60;2.65;;;;;;;;;;5118018;27;20051;-83
2021/11/01 03:21:40;;;;;;;11.23;2.45;;;;;;;;;;5084386;27;20372;-83
2021/11/01 03:24:06;;;;;;;12.02;2.78;;;;;;;;;;5117562;27;20042;-83
2021/11/01 03:26:33;;;;;;;8.73;2.45;;;;;;;;;;5117755;27;20043;-82
2021/11/01 03:29:01;;;;;;;10.75;2.63;;;;;;;;;;5100449;27;20047;-86
2021/11/01 03:31:28;;;;;;;11.40;3.03;;;;;;;;;;5100920;27;20039;-83
2021/11/01 03:33:56;;;;;;;14.70;3.13;;;;;;;;;;5100964;27;20055;-82
2021/11/01 03:36:23;;;;;;;13.90;2.60;;;;;;;;;;5100499;27;20134;-82
2021/11/01 03:38:50;;;;;;;10.93;2.58;;;;;;;;;;5117052;27;20516;-82
2021/11/01 03:41:17;;;;;;;10.13;2.55;;;;;;;;;;5100376;27;20395;-83
2021/11/01 03:44:01;;;;;;;9.55;2.60;;;;;;;;;;5100414;27;20043;-82
2021/11/01 03:47:11;;;;;;;10.48;2.42;;;;;;;;;;5101012;27;20066;-83
2021/11/01 03:49:17;;;;;;;13.23;2.88;;;;;;;;;;5111830;27;20047;-82
2021/11/01 03:54:14;;;;;;;12.00;2.40;;;;;;;;;;5116799;27;20047;-82
2021/11/01 03:56:41;;;;;;;9.13;2.78;;;;;;;;;;5117356;27;20470;-83
2021/11/01 03:59:08;;;;;;;12.57;2.67;;;;;;;;;;5116905;27;20039;-83
2021/11/01 04:01:39;;;;;;;11.15;2.63;;;;;;;;;;5117743;27;20134;-83
2021/11/01 04:04:06;;;;;;;11.63;2.88;;;;;;;;;;5100104;27;20435;-83
2021/11/01 04:06:32;;;;;;;11.65;2.80;;;;;;;;;;5116389;27;20410;-82
2021/11/01 04:08:58;;;;;;;11.02;2.50;;;;;;;;;;5116900;27;20051;-82
2021/11/01 04:11:25;;;;;;;8.65;2.30;;;;;;;;;;5100056;27;20050;-83
2021/11/01 04:14:02;;;;;;;15.77;2.80;;;;;;;;;;5099857;27;20043;-82
2021/11/01 04:16:42;;;;;;;8.18;2.38;;;;;;;;;;5099795;27;20054;-83
2021/11/01 04:21:41;;;;;;;11.48;2.35;;;;;;;;;;5117482;28;20091;-83
2021/11/01 04:24:07;;;;;;;13.77;2.70;;;;;;;;;;5099838;28;20047;-82
2021/11/01 04:26:34;;;;;;;10.50;2.22;;;;;;;;;;5099310;27;20054;-83
2021/11/01 04:29:04;;;;;;;10.35;2.20;;;;;;;;;;5100033;27;20192;-82
2021/11/01 04:31:35;;;;;;;14.07;2.78;;;;;;;;;;5116651;28;20060;-83
2021/11/01 04:34:08;;;;;;;9.95;2.20;;;;;;;;;;5116728;28;20047;-86
2021/11/01 04:36:34;;;;;;;8.55;2.42;;;;;;;;;;5100131;27;20462;-83
2021/11/01 04:41:42;;;;;;;9.73;3.00;;;;;;;;;;5116861;28;20131;-82
2021/11/01 04:55:16;;;;;;;7.45;2.20;;;;;;;;;;5120849;27;20051;-83
2021/11/01 04:57:42;;;;;;;9.52;2.35;;;;;;;;;;5104681;27;20089;-83
2021/11/01 05:00:09;;;;;;;8.57;2.38;;;;;;;;;;5120758;27;20096;-82
2021/11/01 05:02:37;;;;;;;7.88;2.30;;;;;;;;;;5120562;27;20090;-82
2021/11/01 05:05:04;;;;;;;10.90;2.30;;;;;;;;;;5119984;27;20156;-85
2021/11/01 05:07:30;;;;;;;8.73;2.08;;;;;;;;;;5104109;27;20054;-83
2021/11/01 05:10:23;;;;;;;8.20;2.33;;;;;;;;;;5120681;27;20372;-82
2021/11/01 05:12:50;;;;;;;7.85;1.95;;;;;;;;;;5120743;27;20050;-83
2021/11/01 05:18:14;;;;;;;9.77;2.20;;;;;;;;;;5121430;27;20047;-82
2021/11/01 05:20:50;;;;;;;8.50;2.03;;;;;;;;;;5104706;27;20047;-83
2021/11/01 05:23:38;;;;;;;11.88;2.50;;;;;;;;;;5104051;27;20054;-82
2021/11/01 05:26:09;;;;;;;13.18;2.65;;;;;;;;;;5121348;27;20054;-84
2021/11/01 05:31:22;;;;;;;;;;;;;;;;;;5120268;27;20500;-83
2021/11/01 05:34:03;;;;;;;7.43;2.28;;;;;;;;;;5103777;27;19926;-82
2021/11/01 05:36:29;;;;;;;9.25;2.50;;;;;;;;;;5120310;27;20150;-83
2021/11/01 05:38:55;;;;;;;8.07;2.33;;;;;;;;;;5120102;27;20145;-83
2021/11/01 05:41:23;;;;;;;6.65;2.10;;;;;;;;;;5120084;27;20413;-82
2021/11/01 05:43:49;;;;;;;9.00;2.22;;;;;;;;;;5102912;27;20058;-83
2021/11/01 05:46:15;;;;;;;11.02;2.47;;;;;;;;;;5119996;27;20078;-82
2021/11/01 05:48:52;;;;;;;6.32;2.13;;;;;;;;;;5119367;27;20051;-83
2021/11/01 05:51:20;;;;;;;10.43;2.20;;;;;;;;;;5120656;27;20046;-82
2021/11/01 05:53:51;;;;;;;11.00;2.45;;;;;;;;;;5119015;27;20495;-83
2021/11/01 05:56:28;;;;;;;9.43;2.42;;;;;;;;;;5102432;27;20049;-81
2021/11/01 06:04:17;;;;;;;8.20;2.33;;;;;;;;;;5120138;27;20061;-86
2021/11/01 06:14:38;;;;;;;7.90;2.20;;;;;;;;;;5120466;27;20062;-83
2021/11/01 06:17:05;;;;;;;11.95;2.75;;;;;;;;;;5102375;27;20130;-85
2021/11/01 06:19:31;;;;;;;8.48;2.40;;;;;;;;;;5119695;27;20036;-84
2021/11/01 06:21:57;;;;;;;9.80;2.17;;;;;;;;;;5120036;27;20088;-82
2021/11/01 06:27:01;;;;;;;10.07;2.58;;;;;;;;;;5119052;27;20043;-83
2021/11/01 06:29:35;;;;;;;11.40;2.63;;;;;;;;;;5119105;27;20043;-82
2021/11/01 06:32:16;;;;;;;10.25;2.42;;;;;;;;;;5118353;27;20122;-83
2021/11/01 06:40:37;;;;;;;11.07;2.60;;;;;;;;;;5118417;27;20051;-84
2021/11/01 06:43:15;;;;;;;8.38;2.90;;;;;;;;;;5118571;27;20537;-86
2021/11/01 07:15:19;;;;;;;9.35;3.15;;;;;;;;;;5118299;27;20398;-84
2021/11/01 07:17:56;;;;;;;11.70;3.75;;;;;;;;;;5100755;27;20478;-83
2021/11/01 07:23:53;;;;;;;8.80;3.47;;;;;;;;;;5094377;27;20051;-83
2021/11/01 08:21:44;;;;;;;10.37;3.80;;;;;;;;;;5116656;28;20047;-88
2021/11/01 08:40:31;;;;;;;7.22;3.28;;;;;;;;;;5117172;28;20039;-88
2021/11/01 08:46:44;;;;;;;10.10;3.40;;;;;;;;;;5116871;28;20047;-88
2021/11/01 09:03:02;;;;;;;11.60;3.55;;;;;;;;;;5116963;28;20035;-86
2021/11/01 09:21:15;;;;;;;6.10;2.50;;;;;;;;;;5116279;28;20047;-88
2021/11/01 09:26:15;;;;;;;8.70;2.97;;;;;;;;;;5116120;28;20039;-86
2021/11/01 09:28:52;;;;;;;7.70;3.00;;;;;;;;;;5099225;28;20039;-86
2021/11/01 09:36:50;;;;;;;6.85;3.35;;;;;;;;;;5120211;27;20500;-86
2021/11/01 09:41:43;;;;;;;5.50;3.17;;;;;;;;;;5119784;27;20051;-86
2021/11/01 09:44:12;;;;;;;8.18;3.38;;;;;;;;;;5103476;27;20096;-89
2021/11/01 09:46:39;;;;;;;7.88;3.00;;;;;;;;;;5102724;27;20394;-88
2021/11/01 09:51:34;;;;;;;12.02;3.25;;;;;;;;;;5120580;27;20063;-87
2021/11/01 09:54:00;;;;;;;7.63;3.13;;;;;;;;;;5119717;27;20073;-89
2021/11/01 09:59:11;;;;;;;6.47;3.30;;;;;;;;;;5119676;27;20051;-88
2021/11/01 10:01:37;;;;;;;6.90;3.22;;;;;;;;;;5120551;27;20051;-87
2021/11/01 10:04:03;;;;;;;8.13;3.35;;;;;;;;;;5102728;27;20058;-87
2021/11/01 10:06:32;;;;;;;6.55;2.75;;;;;;;;;;5102005;27;20095;-86
2021/11/01 10:09:00;;;;;;;6.65;2.90;;;;;;;;;;5119846;27;20039;-88
2021/11/01 10:11:31;;;;;;;6.95;3.00;;;;;;;;;;5102223;27;20047;-88
2021/11/01 10:13:59;;;;;;;7.50;3.08;;;;;;;;;;5102635;27;20470;-87
2021/11/01 10:19:41;;;;;;;9.10;2.65;;;;;;;;;;5119047;27;20137;-88
2021/11/01 10:22:19;;;;;;;7.78;2.90;;;;;;;;;;5102513;27;20060;-92
2021/11/01 10:24:45;;;;;;;5.63;2.70;;;;;;;;;;5102349;27;20063;-87
2021/11/01 10:27:13;;;;;;;8.93;2.60;;;;;;;;;;5102116;27;20066;-87
2021/11/01 10:30:01;;;;;;;8.15;2.50;;;;;;;;;;5118501;27;20149;-87
2021/11/01 10:32:29;;;;;;;5.80;2.40;;;;;;;;;;5119248;27;20351;-84
2021/11/01 10:35:19;;;;;;;8.90;2.70;;;;;;;;;;5119680;27;20051;-84
2021/11/01 10:38:03;;;;;;;10.55;2.53;;;;;;;;;;5101818;27;20471;-84
2021/11/01 10:40:31;;;;;;;6.70;2.25;;;;;;;;;;5102570;27;20077;-84
2021/11/01 10:43:17;;;;;;;7.68;2.60;;;;;;;;;;5118697;27;20394;-83
2021/11/01 10:57:23;;;;;;;8.90;2.70;;;;;;;;;;5118670;27;20047;-84
2021/11/01 11:13:55;;;;;;;6.85;2.60;;;;;;;;;;5108863;27;20047;-84
2021/11/01 11:16:54;;;;;;;5.68;2.22;;;;;;;;;;5118849;27;20051;-82
2021/11/01 11:29:57;;;;;;;;;;;;;;;;;;5118256;27;20051;-84
2021/11/01 11:48:44;;;;;;;8.02;2.33;;;;;;;;;;5118046;27;20062;-86
2021/11/01 11:51:11;;;;;;;8.60;2.22;;;;;;;;;;5117178;27;20445;-89
2021/11/01 11:53:50;;;;;;;6.15;2.28;;;;;;;;;;5117732;27;20521;-84
2021/11/01 11:56:16;;;;;;;5.95;2.20;;;;;;;;;;5100894;27;20039;-83
2021/11/01 11:58:48;;;;;;;8.20;2.40;;;;;;;;;;5117890;27;20043;-84
2021/11/01 12:01:28;;;;;;;5.40;1.80;;;;;;;;;;5100790;27;20141;-84
2021/11/01 12:03:55;;;;;;;4.50;1.80;;;;;;;;;;5116843;27;20525;-85
2021/11/01 12:06:47;;;;;;;6.03;1.67;;;;;;;;;;5096294;28;20130;-86
2021/11/01 12:09:19;;;;;;;5.18;1.50;;;;;;;;;;5096954;28;20081;-86
2021/11/01 12:17:16;;;;;;;5.72;1.70;;;;;;;;;;5114028;28;20054;-83
2021/11/01 12:19:43;;;;;;;6.50;1.55;;;;;;;;;;5113526;28;20421;-84
2021/11/01 12:22:12;;;;;;;4.28;1.65;;;;;;;;;;5113947;28;20077;-84
2021/11/01 12:24:38;;;;;;;7.40;1.60;;;;;;;;;;5096270;28;20126;-84
2021/11/01 12:27:04;;;;;;;5.85;1.70;;;;;;;;;;5112932;28;20497;-84
2021/11/01 12:29:31;;;;;;;7.28;1.73;;;;;;;;;;5096761;28;20044;-85
2021/11/01 12:32:02;;;;;;;7.20;1.58;;;;;;;;;;5096097;28;20079;-84
2021/11/01 12:34:28;;;;;;;5.15;1.35;;;;;;;;;;5113521;28;20047;-85
2021/11/01 12:37:10;;;;;;;5.95;1.70;;;;;;;;;;5113316;28;20054;-84
2021/11/01 12:39:47;;;;;;;4.22;1.58;;;;;;;;;;5113611;28;20054;-85
2021/11/01 12:58:48;;;;;;;4.32;1.20;;;;;;;;;;5112930;28;20120;-84
2021/11/01 13:01:17;;;;;;;4.05;1.48;;;;;;;;;;5095787;28;20130;-85
2021/11/01 13:03:54;;;;;;;4.70;1.50;;;;;;;;;;5112740;28;20040;-84
2021/11/01 13:06:34;;;;;;;5.35;1.40;;;;;;;;;;5096394;28;20051;-84
2021/11/01 13:09:07;;;;;;;9.35;2.17;;;;;;;;;;5116907;28;20050;-84
2021/11/01 13:19:45;;;;;;;4.07;1.30;;;;;;;;;;5117396;28;20368;-85
2021/11/01 13:22:16;;;;;;;3.47;1.20;;;;;;;;;;5116654;28;20047;-86
2021/11/01 13:25:34;;;;;;;4.35;1.30;;;;;;;;;;5100515;28;20047;-86
2021/11/01 13:38:26;;;;;;;4.38;1.40;;;;;;;;;;5116024;28;20491;-87
2021/11/01 13:40:52;;;;;;;5.90;1.50;;;;;;;;;;5116130;28;20147;-89
2021/11/01 13:43:26;;;;;;;6.15;1.73;;;;;;;;;;5117031;28;20085;-87
2021/11/01 13:45:52;;;;;;;4.40;1.50;;;;;;;;;;5117428;28;20136;-86
2021/11/01 13:48:24;;;;;;;5.85;1.35;;;;;;;;;;5099607;28;20051;-86
2021/11/01 13:51:00;;;;;;;3.90;1.38;;;;;;;;;;5116363;28;20044;-86
2021/11/01 13:53:28;;;;;;;4.43;1.50;;;;;;;;;;5099215;28;20044;-86
2021/11/01 13:56:05;;;;;;;5.82;1.85;;;;;;;;;;5098668;28;20048;-84
2021/11/01 13:58:34;;;;;;;5.85;1.60;;;;;;;;;;5099200;28;20043;-88
2021/11/01 14:12:39;;;;;;;7.03;1.75;;;;;;;;;;5115964;28;20055;-88
2021/11/01 14:36:54;;;;;;;5.60;1.67;;;;;;;;;;5115456;28;20044;-87
2021/11/01 15:17:04;;;;;;;3.78;1.90;;;;;;;;;;5115096;28;20047;-85
2021/11/01 15:19:46;;;;;;;6.38;2.47;;;;;;;;;;5114937;28;20043;-88
2021/11/01 16:16:18;;;;;;;8.57;3.17;;;;;;;;;;5117302;27;20051;-87
2021/11/01 16:18:45;;;;;;;5.60;2.80;;;;;;;;;;5116383;27;20055;-87
2021/11/01 16:21:11;;;;;;;8.32;3.25;;;;;;;;;;5099528;27;20051;-87
2021/11/01 16:23:38;;;;;;;7.72;3.40;;;;;;;;;;5099330;27;20043;-87
2021/11/01 16:28:41;;;;;;;13.05;5.90;;;;;;;;;;5116968;27;20043;-87
2021/11/01 16:33:41;;;;;;;15.70;8.10;;;;;;;;;;5116512;27;20054;-87
2021/11/01 16:36:10;;;;;;;16.95;6.85;;;;;;;;;;5099190;27;20527;-85
2021/11/01 16:38:50;;;;;;;10.70;4.72;;;;;;;;;;5116247;28;20058;-85
2021/11/01 16:41:17;;;;;;;12.73;4.97;;;;;;;;;;5098848;27;20126;-87
2021/11/01 16:43:43;;;;;;;18.75;7.70;;;;;;;;;;5116024;28;20082;-85
2021/11/01 16:46:09;;;;;;;17.67;7.32;;;;;;;;;;5116909;28;20363;-86
2021/11/01 16:48:36;;;;;;;9.82;5.68;;;;;;;;;;5098929;28;20047;-87
2021/11/01 16:51:02;;;;;;;12.18;6.03;;;;;;;;;;5099320;28;20047;-85
2021/11/01 16:53:28;;;;;;;10.15;4.47;;;;;;;;;;5099273;28;20047;-86
2021/11/01 16:56:05;;;;;;;10.23;4.20;;;;;;;;;;5116104;28;20055;-86
2021/11/01 16:58:43;;;;;;;11.68;4.47;;;;;;;;;;5099437;28;20043;-86
2021/11/01 17:01:13;;;;;;;10.18;4.28;;;;;;;;;;5116339;28;20050;-86
2021/11/01 17:09:00;;;;;;;8.50;3.95;;;;;;;;;;5115434;28;20083;-85
2021/11/01 17:22:39;;;;;;;6.33;3.07;;;;;;;;;;5115793;28;20130;-85
2021/11/01 17:25:10;;;;;;;8.57;3.75;;;;;;;;;;5098607;28;20341;-86
2021/11/01 18:40:39;;;;;;;6.82;3.30;;;;;;;;;;5118600;27;20043;-85
2021/11/01 18:43:33;;;;;;;7.53;3.47;;;;;;;;;;5102177;27;20051;-85
2021/11/01 18:54:12;;;;;;;5.65;3.30;;;;;;;;;;5117819;27;20047;-85
2021/11/01 18:56:40;;;;;;;10.23;3.63;;;;;;;;;;5101635;27;20387;-85
2021/11/01 18:59:07;;;;;;;7.25;3.22;;;;;;;;;;5101356;27;20092;-85
2021/11/01 19:01:35;;;;;;;6.28;3.20;;;;;;;;;;5101384;27;20043;-85
2021/11/01 19:04:03;;;;;;;4.63;3.00;;;;;;;;;;5100395;27;20043;-85
2021/11/01 19:06:48;;;;;;;6.22;3.30;;;;;;;;;;5119479;27;20055;-86
2021/11/01 20:04:40;;;;;;;3.92;2.58;;;;;;;;;;5116957;27;20466;-87
2021/11/01 20:12:41;;;;;;;4.13;2.63;;;;;;;;;;5117074;27;20399;-85
2021/11/01 21:27:09;;;;;;;5.07;2.90;;;;;;;;;;5117642;27;20047;-85
2021/11/01 21:29:36;;;;;;;3.80;2.90;;;;;;;;;;5102947;27;20043;-84
2021/11/01 21:32:03;;;;;;;4.13;3.03;;;;;;;;;;5102775;27;20046;-84
2021/11/01 21:34:41;;;;;;;3.92;2.58;;;;;;;;;;5102744;27;20138;-86
2021/11/01 21:37:09;;;;;;;4.00;3.20;;;;;;;;;;5119716;27;20055;-85
2021/11/01 21:39:35;;;;;;;3.80;2.85;;;;;;;;;;5103149;27;20062;-84
2021/11/01 21:42:02;;;;;;;5.47;3.10;;;;;;;;;;5119063;27;20040;-84
2021/11/01 21:44:30;;;;;;;4.60;2.50;;;;;;;;;;5120317;27;20078;-88
2021/11/01 21:46:56;;;;;;;3.70;3.08;;;;;;;;;;5105602;27;20042;-84
2021/11/01 21:49:22;;;;;;;5.40;3.00;;;;;;;;;;5103210;27;20043;-85
2021/11/01 21:51:49;;;;;;;4.78;2.78;;;;;;;;;;5103445;27;20043;-84
2021/11/01 21:56:46;;;;;;;5.03;2.90;;;;;;;;;;5119012;27;20126;-85
2021/11/01 21:59:46;;;;;;;4.97;3.00;;;;;;;;;;5102358;27;20043;-84
2021/11/01 22:21:02;;;;;;;5.63;3.42;;;;;;;;;;5118511;27;20062;-84
2021/11/01 22:26:06;;;;;;;6.53;3.58;;;;;;;;;;5118947;27;20172;-84
2021/11/01 22:34:14;;;;;;;8.73;5.43;;;;;;;;;;5118904;27;20050;-84
2021/11/01 22:40:00;;;;;;;4.18;3.20;;;;;;;;;;5074985;28;20097;-85
2021/11/01 22:58:41;;;;;;;10.30;6.43;;;;;;;;;;5118533;27;20398;-84
2021/11/01 23:01:21;;;;;;;9.20;6.80;;;;;;;;;;5101142;27;20402;-84
2021/11/01 23:04:07;;;;;;;8.93;6.28;;;;;;;;;;5117991;27;20047;-84
2021/11/01 23:06:52;;;;;;;10.02;7.22;;;;;;;;;;5117397;27;20055;-84
2021/11/01 23:33:55;;;;;;;8.27;6.53;;;;;;;;;;5118223;27;20129;-84
2021/11/01 23:36:21;;;;;;;8.13;6.15;;;;;;;;;;5118055;27;20047;-84
2021/11/01 23:38:47;;;;;;;8.50;6.53;;;;;;;;;;5117388;27;20137;-84
2021/11/01 23:41:13;;;;;;;7.85;5.75;;;;;;;;;;5117388;27;20055;-84
2021/11/01 23:43:39;;;;;;;9.63;5.93;;;;;;;;;;5117394;27;20122;-84
2021/11/01 23:46:06;;;;;;;7.20;5.90;;;;;;;;;;5100199;27;20423;-84
2021/11/01 23:48:32;;;;;;;7.72;6.55;;;;;;;;;;5117277;27;20047;-87
2021/11/01 23:50:59;;;;;;;8.25;6.22;;;;;;;;;;5100647;27;20363;-83
2021/11/01 23:56:07;;;;;;;9.18;6.20;;;;;;;;;;5120942;27;20054;-85
2021/11/01 23:58:34;;;;;;;8.02;5.80;;;;;;;;;;5116893;27;20043;-84
